Time;durP1;ratioP1;P1;durP2;ratioP2;P2;SDS_P1;SDS_P2;PMS_P1;PMS_P2;Temp;Humidity;BMP_temperature;BMP_pressure;BME280_temperature;BME280_humidity;BME280_pressure;Samples;Min_cycle;Max_cycle;Signal;HPM_P1;HPM_P2
2024/02/27 00:00:08;;;;;;;7.25;6.55;;;7.50;99.90;;;7.51;85.29;101547.34;4955231;28;20387;-64
2024/02/27 00:02:36;;;;;;;7.30;5.95;;;7.40;99.90;;;7.44;85.15;101541.94;4972559;28;20070;-65
2024/02/27 00:05:06;;;;;;;7.93;6.85;;;7.40;99.90;;;7.50;85.43;101550.84;4972174;28;20051;-64
2024/02/27 00:07:34;;;;;;;7.87;6.53;;;7.40;99.90;;;7.47;85.02;101545.50;4955056;28;20325;-64
2024/02/27 00:10:04;;;;;;;9.13;6.50;;;7.40;99.90;;;7.52;85.32;101548.25;4972566;28;20190;-64
2024/02/27 00:12:34;;;;;;;9.40;6.85;;;7.40;99.90;;;7.48;85.48;101544.69;4972546;28;20114;-64
2024/02/27 00:15:05;;;;;;;10.27;6.68;;;7.40;99.90;;;7.44;85.77;101557.72;4972778;28;20065;-64
2024/02/27 00:17:33;;;;;;;7.05;6.43;;;7.30;99.90;;;7.34;85.59;101558.44;4972109;28;20138;-64
2024/02/27 00:20:02;;;;;;;7.88;6.82;;;7.30;99.90;;;7.38;85.63;101561.13;4972553;28;20101;-65
2024/02/27 00:22:31;;;;;;;9.55;6.65;;;7.30;99.90;;;7.31;85.68;101548.72;4972074;28;20128;-64
2024/02/27 00:25:00;;;;;;;9.80;7.45;;;7.30;99.90;;;7.36;85.98;101556.69;4972482;28;20073;-64
2024/02/27 00:27:28;;;;;;;9.35;6.75;;;7.30;99.90;;;7.37;85.91;101562.00;4971997;28;20055;-64
2024/02/27 00:29:57;;;;;;;9.70;6.43;;;7.30;99.90;;;7.42;85.94;101573.50;4971844;28;20055;-64
2024/02/27 00:32:26;;;;;;;8.40;6.60;;;7.30;99.90;;;7.43;85.74;101572.66;4971846;28;20076;-64
2024/02/27 00:34:55;;;;;;;16.50;7.65;;;7.30;99.90;;;7.48;85.81;101565.72;4972497;28;20051;-64
2024/02/27 00:37:24;;;;;;;9.73;6.72;;;7.40;99.90;;;7.49;85.14;101564.84;4954836;28;20416;-64
2024/02/27 00:39:53;;;;;;;9.55;6.70;;;7.40;99.90;;;7.50;85.36;101571.00;4972863;28;20043;-64
2024/02/27 00:42:21;;;;;;;8.45;6.40;;;7.40;99.90;;;7.42;85.21;101575.25;4975748;28;20531;-64
2024/02/27 00:44:50;;;;;;;7.97;6.88;;;7.30;99.90;;;7.19;85.64;101545.84;4976147;28;20046;-64
2024/02/27 00:47:18;;;;;;;8.88;6.82;;;7.30;99.90;;;7.34;86.07;101572.47;4975710;28;20512;-64
2024/02/27 00:49:48;;;;;;;9.57;6.53;;;7.20;99.90;;;7.38;86.15;101570.78;4958341;28;20110;-64
2024/02/27 00:52:17;;;;;;;8.60;6.97;;;7.30;99.90;;;7.49;86.10;101582.41;4975782;28;20393;-64
2024/02/27 00:54:45;;;;;;;8.23;6.43;;;7.30;99.90;;;7.57;85.68;101578.19;4975632;28;20043;-64
2024/02/27 00:57:14;;;;;;;9.20;6.80;;;7.40;99.90;;;7.52;85.46;101586.00;4975412;28;20050;-64
2024/02/27 00:59:42;;;;;;;8.35;6.65;;;7.40;99.90;;;7.47;85.58;101586.75;4975697;28;20050;-64
2024/02/27 01:02:10;;;;;;;9.93;6.95;;;7.40;99.90;;;7.44;85.48;101574.41;4975521;28;20050;-65
2024/02/27 01:04:39;;;;;;;7.90;6.30;;;7.30;99.90;;;7.39;85.66;101583.97;4975399;28;20035;-65
2024/02/27 01:07:09;;;;;;;10.27;6.78;;;7.30;99.90;;;7.39;85.89;101583.09;4975301;28;20424;-65
2024/02/27 01:09:37;;;;;;;10.05;6.45;;;7.30;99.90;;;7.39;86.05;101576.09;4958058;28;20055;-64
2024/02/27 01:12:06;;;;;;;11.65;7.00;;;7.30;99.90;;;7.39;85.64;101569.94;4975156;28;20054;-64
2024/02/27 01:14:35;;;;;;;7.20;6.50;;;7.30;99.90;;;7.37;85.46;101580.44;4975143;28;20397;-64
2024/02/27 01:17:03;;;;;;;9.35;7.05;;;7.30;99.90;;;7.30;85.83;101583.78;4974865;28;20062;-64
2024/02/27 01:19:32;;;;;;;9.85;6.80;;;7.20;99.90;;;7.38;85.82;101587.47;4975035;28;20521;-65
2024/02/27 01:22:00;;;;;;;10.30;6.85;;;7.30;99.90;;;7.27;86.60;101595.16;4974969;28;20497;-64
2024/02/27 01:24:30;;;;;;;7.03;6.32;;;7.10;99.90;;;7.37;86.21;101593.59;4975457;28;20050;-65
2024/02/27 01:26:59;;;;;;;9.13;7.13;;;7.20;99.90;;;7.43;86.24;101598.09;4975434;28;20141;-65
2024/02/27 01:29:27;;;;;;;9.70;7.10;;;7.30;99.90;;;7.42;86.01;101598.94;4957720;28;20050;-64
2024/02/27 01:31:56;;;;;;;10.65;6.80;;;7.30;99.90;;;7.45;86.22;101599.91;4974898;28;20070;-64
2024/02/27 01:34:25;;;;;;;7.57;6.53;;;7.30;99.90;;;7.36;86.09;101597.06;4974774;28;20061;-64
2024/02/27 01:36:54;;;;;;;10.27;6.95;;;7.30;99.90;;;7.44;85.99;101589.31;4974873;28;20113;-64
2024/02/27 01:39:23;;;;;;;10.18;6.40;;;7.30;99.90;;;7.32;86.02;101597.00;4974715;28;20046;-64
2024/02/27 01:41:52;;;;;;;8.15;6.53;;;7.20;99.90;;;7.16;86.34;101578.22;4974717;28;20066;-64
2024/02/27 01:44:21;;;;;;;9.73;7.53;;;7.20;99.90;;;7.31;86.81;101604.00;4974480;28;20461;-64
2024/02/27 01:46:49;;;;;;;7.50;6.68;;;7.20;99.90;;;7.37;86.77;101608.50;4974448;28;20408;-64
2024/02/27 01:49:18;;;;;;;8.82;6.82;;;7.20;99.90;;;7.22;86.64;101581.00;4974648;28;20123;-64
2024/02/27 01:51:49;;;;;;;7.85;6.40;;;7.20;99.90;;;7.28;86.87;101606.53;4974243;28;20070;-64
2024/02/27 01:54:19;;;;;;;;;;;7.20;99.90;;;7.29;86.57;101626.75;4974994;28;20051;-64
2024/02/27 01:56:49;;;;;;;11.57;6.63;;;7.20;99.90;;;7.38;86.39;101610.25;4974302;28;19926;-64
2024/02/27 01:59:22;;;;;;;;;;;7.20;99.90;;;7.36;86.61;101612.84;4974861;28;20043;-64
2024/02/27 02:01:51;;;;;;;11.10;6.72;;;7.20;99.90;;;7.27;86.71;101621.47;4974154;28;20265;-64
2024/02/27 02:04:20;;;;;;;7.70;6.85;;;7.20;99.90;;;7.23;86.81;101610.84;4974233;28;20131;-64
2024/02/27 02:06:49;;;;;;;9.93;7.03;;;7.10;99.90;;;7.29;86.40;101614.50;4974307;28;20047;-64
2024/02/27 02:09:18;;;;;;;8.20;6.40;;;7.20;99.90;;;7.29;86.44;101618.84;4974121;28;20470;-65
2024/02/27 02:11:47;;;;;;;10.50;6.70;;;7.20;99.90;;;7.22;86.41;101623.09;4974084;28;20077;-65
2024/02/27 02:14:15;;;;;;;7.55;6.10;;;7.10;99.90;;;7.32;86.50;101618.03;4974016;28;20105;-64
2024/02/27 02:16:45;;;;;;;9.43;6.18;;;7.20;99.90;;;7.37;86.05;101617.28;4973783;28;20043;-64
2024/02/27 02:19:14;;;;;;;10.50;6.70;;;7.30;99.90;;;7.36;85.74;101633.00;4974169;28;20038;-64
2024/02/27 02:21:50;;;;;;;7.05;6.35;;;7.20;99.90;;;7.37;85.71;101619.00;4973892;28;20051;-64
2024/02/27 02:24:20;;;;;;;7.45;6.65;;;7.20;99.90;;;7.37;86.00;101630.44;4974228;28;20057;-64
2024/02/27 02:26:50;;;;;;;7.82;6.22;;;7.20;99.90;;;7.39;85.48;101631.34;4973917;28;20113;-64
2024/02/27 02:29:18;;;;;;;11.43;6.70;;;7.30;99.90;;;7.31;85.60;101632.94;4974020;28;20055;-64
2024/02/27 02:31:47;;;;;;;9.10;6.93;;;7.30;99.90;;;7.33;85.46;101636.50;4973713;28;20039;-64
2024/02/27 02:34:15;;;;;;;10.60;6.50;;;7.30;99.90;;;7.23;86.10;101632.78;4973917;28;20042;-64
2024/02/27 02:36:45;;;;;;;7.57;6.13;;;7.20;99.90;;;7.26;85.95;101618.78;4973678;28;20137;-64
2024/02/27 02:39:13;;;;;;;10.38;6.18;;;7.20;99.90;;;7.15;85.92;101628.19;4973649;28;20043;-64
2024/02/27 02:41:42;;;;;;;8.10;6.13;;;7.10;99.90;;;7.20;86.34;101623.94;4973320;28;20038;-64
2024/02/27 02:44:10;;;;;;;8.98;6.45;;;7.10;99.90;;;7.16;86.33;101617.69;4973740;28;20043;-64
2024/02/27 02:46:39;;;;;;;7.63;6.82;;;7.10;99.90;;;7.24;86.07;101624.00;4973550;28;20059;-64
2024/02/27 02:49:08;;;;;;;10.48;6.10;;;7.10;99.90;;;7.21;86.06;101623.97;4973358;28;20122;-64
2024/02/27 02:51:36;;;;;;;9.57;6.55;;;7.10;99.90;;;7.19;86.15;101633.56;4956190;28;20101;-64
2024/02/27 02:54:06;;;;;;;11.82;5.80;;;7.00;99.90;;;7.21;85.92;101621.34;4973492;28;20060;-64
2024/02/27 02:56:35;;;;;;;9.30;6.25;;;7.10;99.90;;;7.20;85.60;101618.69;4973580;28;20129;-64
2024/02/27 02:59:03;;;;;;;6.35;5.45;;;7.10;99.90;;;7.26;86.19;101610.88;4973147;28;20039;-64
2024/02/27 03:01:31;;;;;;;10.27;6.15;;;7.10;99.90;;;7.32;85.72;101624.16;4973060;28;20512;-64
2024/02/27 03:04:00;;;;;;;6.60;5.85;;;7.20;99.90;;;7.29;85.89;101624.13;4955342;28;20047;-64
2024/02/27 03:06:29;;;;;;;7.40;6.00;;;7.10;99.90;;;7.34;86.03;101627.72;4972952;28;20047;-64
2024/02/27 03:08:57;;;;;;;9.45;5.80;;;7.20;99.90;;;7.35;85.46;101629.50;4955803;28;20078;-64
2024/02/27 03:11:27;;;;;;;11.27;5.88;;;7.30;99.90;;;7.35;85.39;101631.25;4955506;28;20058;-64
2024/02/27 03:13:55;;;;;;;8.40;5.95;;;7.20;99.90;;;7.30;85.61;101637.31;4955575;28;20054;-64
2024/02/27 03:16:24;;;;;;;6.93;5.40;;;7.20;99.90;;;7.23;85.86;101637.13;4973039;28;20038;-64
2024/02/27 03:18:52;;;;;;;10.45;6.00;;;7.20;99.90;;;7.16;86.11;101614.19;4973179;28;20086;-64
2024/02/27 03:21:21;;;;;;;9.23;5.50;;;7.10;99.90;;;7.29;85.68;101637.28;4972696;28;20489;-64
2024/02/27 03:23:49;;;;;;;6.28;5.68;;;7.20;99.90;;;7.24;86.03;101637.16;4972931;28;20082;-64
2024/02/27 03:26:17;;;;;;;8.77;6.38;;;7.10;99.90;;;7.25;86.09;101635.44;4972739;28;20054;-63
2024/02/27 03:28:47;;;;;;;12.20;5.90;;;7.20;99.90;;;7.25;86.04;101646.84;4972888;28;20101;-64
2024/02/27 03:31:16;;;;;;;7.72;5.82;;;7.10;99.90;;;7.20;86.07;101637.97;4972698;28;20113;-64
2024/02/27 03:33:44;;;;;;;8.90;6.10;;;7.10;99.90;;;7.19;86.02;101633.56;4972539;28;20051;-64
2024/02/27 03:36:13;;;;;;;8.77;5.55;;;7.10;99.90;;;7.23;86.38;101639.78;4955470;28;20081;-64
2024/02/27 03:38:42;;;;;;;7.13;6.18;;;7.10;99.90;;;7.22;85.99;101627.44;4972611;28;20555;-64
2024/02/27 03:41:13;;;;;;;7.18;5.72;;;7.10;99.90;;;7.19;85.81;101637.94;4972752;28;20043;-64
2024/02/27 03:43:42;;;;;;;12.73;6.20;;;7.00;99.90;;;7.05;86.27;101620.94;4972404;28;20480;-64
2024/02/27 03:46:12;;;;;;;10.05;5.60;;;7.00;99.90;;;7.15;85.70;101649.22;4972611;28;20047;-64
2024/02/27 03:48:40;;;;;;;9.57;5.47;;;7.00;99.90;;;7.11;86.63;101660.53;4972616;28;20118;-64
2024/02/27 03:51:09;;;;;;;8.30;5.70;;;7.00;99.90;;;7.01;85.98;101658.56;4972717;28;20081;-64
2024/02/27 03:53:38;;;;;;;7.15;6.38;;;6.90;99.90;;;7.09;86.53;101662.25;4972168;28;20046;-64
2024/02/27 03:56:07;;;;;;;9.60;5.60;;;6.90;99.90;;;7.13;86.60;101658.84;4972340;28;20081;-64
2024/02/27 03:58:36;;;;;;;8.40;5.38;;;7.00;99.90;;;7.05;86.17;101652.50;4972715;28;20081;-64
2024/02/27 04:01:05;;;;;;;7.10;5.53;;;7.00;99.90;;;7.10;86.17;101664.91;4972438;28;20042;-64
2024/02/27 04:03:35;;;;;;;8.07;6.00;;;7.00;99.90;;;7.07;86.40;101670.13;4972368;28;20507;-64
2024/02/27 04:06:04;;;;;;;11.43;5.88;;;6.90;99.90;;;7.13;86.49;101669.34;4972123;28;20069;-64
2024/02/27 04:08:32;;;;;;;9.80;6.28;;;6.90;99.90;;;7.12;86.27;101672.84;4972291;28;20074;-64
2024/02/27 04:11:00;;;;;;;9.52;5.82;;;6.90;99.90;;;6.95;86.44;101664.56;4972055;28;20059;-64
2024/02/27 04:13:29;;;;;;;8.63;5.40;;;6.90;99.90;;;7.13;86.44;101677.25;4972277;28;20130;-64
2024/02/27 04:16:00;;;;;;;7.78;5.93;;;7.00;99.90;;;7.10;86.42;101679.81;4954133;28;20090;-64
2024/02/27 04:18:28;;;;;;;7.65;5.95;;;7.00;99.90;;;6.87;86.43;101658.25;4971921;28;20063;-64
2024/02/27 04:20:58;;;;;;;10.88;6.07;;;6.90;99.90;;;7.04;86.06;101683.22;4954901;28;20070;-64
2024/02/27 04:23:27;;;;;;;8.52;5.90;;;7.00;99.90;;;7.07;86.33;101698.16;4971921;28;20038;-64
2024/02/27 04:25:55;;;;;;;7.85;5.55;;;7.00;99.90;;;6.98;86.36;101695.31;4972343;28;20046;-64
2024/02/27 04:28:24;;;;;;;5.88;5.28;;;6.90;99.90;;;7.07;86.30;101716.56;4971930;28;20081;-64
2024/02/27 04:30:52;;;;;;;9.60;5.70;;;6.90;99.90;;;6.95;86.82;101716.31;4971926;28;20042;-64
2024/02/27 04:33:21;;;;;;;5.80;5.30;;;6.80;99.90;;;7.00;86.43;101726.06;4972193;28;20050;-64
2024/02/27 04:35:49;;;;;;;19.10;6.00;;;6.80;99.90;;;7.04;86.51;101717.41;4972067;28;20054;-64
2024/02/27 04:38:20;;;;;;;7.95;5.57;;;6.90;99.90;;;7.02;86.43;101724.38;4971791;28;20548;-64
2024/02/27 04:40:48;;;;;;;9.25;5.90;;;6.90;99.90;;;6.88;86.25;101693.31;4971747;28;20484;-63
2024/02/27 04:43:17;;;;;;;7.45;5.90;;;6.90;99.90;;;7.12;85.79;101725.47;4954576;28;20078;-64
2024/02/27 04:45:44;;;;;;;11.48;5.90;;;7.00;99.90;;;7.07;85.91;101716.56;4954614;28;20042;-64
2024/02/27 04:48:12;;;;;;;9.23;5.65;;;7.00;99.90;;;7.07;85.83;101725.34;4971773;28;20081;-63
2024/02/27 04:50:41;;;;;;;9.43;5.65;;;7.00;99.90;;;7.05;85.62;101720.91;4971966;28;20523;-64
2024/02/27 04:53:09;;;;;;;6.80;5.57;;;7.00;99.90;;;6.91;86.05;101727.59;4971701;28;20452;-64
2024/02/27 04:55:39;;;;;;;7.40;6.55;;;6.90;99.90;;;7.04;86.17;101737.56;4972071;28;20130;-64
2024/02/27 04:58:07;;;;;;;11.02;6.55;;;6.90;99.90;;;7.05;86.32;101745.47;4971891;28;20055;-64
2024/02/27 05:00:36;;;;;;;9.65;6.22;;;7.00;99.90;;;7.09;86.00;101741.16;4971529;28;20046;-64
2024/02/27 05:03:05;;;;;;;8.63;6.05;;;7.00;99.90;;;7.11;86.02;101749.97;4971807;28;20043;-64
2024/02/27 05:05:36;;;;;;;9.70;5.93;;;7.00;99.90;;;7.08;86.07;101745.53;4971705;28;20493;-64
2024/02/27 05:08:05;;;;;;;9.63;5.90;;;7.00;99.90;;;6.21;85.95;101606.72;4971983;28;20050;-64
2024/02/27 05:10:34;;;;;;;7.70;5.50;;;6.90;99.90;;;7.00;85.83;101757.63;4971719;28;20121;-64
2024/02/27 05:13:04;;;;;;;8.05;5.80;;;6.90;99.90;;;7.07;86.26;101751.66;4971768;28;20072;-64
2024/02/27 05:15:32;;;;;;;6.85;6.13;;;6.90;99.90;;;7.16;86.26;101748.38;4971579;28;20050;-64
2024/02/27 05:18:01;;;;;;;10.30;6.30;;;7.00;99.90;;;7.13;85.79;101750.91;4971614;28;20051;-64
2024/02/27 05:20:30;;;;;;;9.68;5.63;;;7.00;99.90;;;7.09;85.82;101751.69;4971529;28;20043;-64
2024/02/27 05:22:58;;;;;;;9.13;5.80;;;7.00;99.90;;;7.12;85.88;101757.91;4971472;28;20042;-64
2024/02/27 05:25:27;;;;;;;9.13;5.70;;;7.00;99.90;;;7.07;85.87;101758.66;4972034;28;20047;-64
2024/02/27 05:27:55;;;;;;;8.43;5.63;;;7.00;99.90;;;7.04;86.48;101755.97;4974999;28;20444;-64
2024/02/27 05:30:25;;;;;;;10.55;6.50;;;6.90;99.90;;;7.09;86.29;101763.09;4974943;28;20042;-63
2024/02/27 05:32:53;;;;;;;11.68;6.60;;;7.00;99.90;;;7.13;86.17;101764.97;4974782;28;20046;-64
2024/02/27 05:35:22;;;;;;;7.82;6.32;;;7.00;99.90;;;7.02;86.15;101761.19;4974826;28;20073;-64
2024/02/27 05:37:50;;;;;;;11.07;7.03;;;6.90;99.90;;;7.13;86.21;101751.81;4974924;28;20046;-64
2024/02/27 05:40:19;;;;;;;10.52;6.80;;;7.00;99.90;;;7.02;86.32;101739.25;4974917;28;20510;-64
2024/02/27 05:42:47;;;;;;;9.65;6.82;;;6.90;99.90;;;7.08;86.32;101745.53;4957715;28;20050;-64
2024/02/27 05:45:16;;;;;;;8.73;6.10;;;7.00;99.90;;;7.10;86.89;101738.56;4957768;28;20047;-64
2024/02/27 05:47:46;;;;;;;10.63;6.55;;;7.00;99.90;;;7.12;86.52;101739.50;4957474;28;20043;-64
2024/02/27 05:50:14;;;;;;;8.57;6.50;;;7.00;99.90;;;6.44;86.46;101628.28;4974641;28;20043;-64
2024/02/27 05:52:43;;;;;;;10.73;6.30;;;7.00;99.90;;;7.07;87.24;101727.09;4974354;28;20074;-64
2024/02/27 05:55:11;;;;;;;10.32;7.25;;;7.00;99.90;;;7.16;86.94;101737.84;4974652;28;20047;-64
2024/02/27 05:57:39;;;;;;;9.02;6.97;;;7.00;99.90;;;7.13;86.93;101722.88;4974463;28;20126;-64
2024/02/27 06:00:09;;;;;;;9.85;7.00;;;7.00;99.90;;;7.18;86.69;101728.25;4974656;28;20101;-64
2024/02/27 06:02:40;;;;;;;11.32;7.57;;;7.00;99.90;;;7.16;86.57;101714.16;4974190;28;20054;-64
2024/02/27 06:05:10;;;;;;;10.95;6.80;;;7.00;99.90;;;7.17;86.52;101724.72;4974158;28;20050;-64
2024/02/27 06:07:38;;;;;;;11.38;7.35;;;7.10;99.90;;;7.12;86.79;101715.81;4974183;28;20050;-65
2024/02/27 06:10:08;;;;;;;10.68;7.47;;;7.00;99.90;;;7.07;87.03;101724.44;4956931;28;20047;-64
2024/02/27 06:12:37;;;;;;;13.68;7.68;;;6.90;99.90;;;7.05;87.43;101713.91;4974224;28;20057;-65
2024/02/27 06:15:07;;;;;;;16.50;7.07;;;6.90;99.90;;;7.10;87.04;101722.78;4974130;28;20417;-64
2024/02/27 06:17:36;;;;;;;17.15;7.88;;;7.00;99.90;;;7.17;87.60;101726.44;4956883;28;20078;-65
2024/02/27 06:22:10;;;;;;;11.10;7.53;;;7.00;99.90;;;7.19;86.98;101730.00;4973956;28;20047;-65
2024/02/27 06:22:54;;;;;;;9.13;7.32;;;7.00;99.90;;;7.11;87.14;101729.84;4973842;28;20051;-64
2024/02/27 06:25:22;;;;;;;12.13;8.02;;;7.00;99.90;;;7.02;87.26;101740.16;4956740;28;20070;-64
2024/02/27 06:27:51;;;;;;;11.77;8.18;;;6.90;99.90;;;7.12;87.57;101738.63;4973985;28;20054;-64
2024/02/27 06:30:20;;;;;;;13.57;8.48;;;7.00;99.90;;;7.14;87.62;101747.44;4956574;28;20141;-64
2024/02/27 06:32:49;;;;;;;13.50;7.63;;;7.00;99.90;;;7.05;87.61;101756.00;4956495;28;20452;-64
2024/02/27 06:35:17;;;;;;;15.18;8.32;;;7.00;99.90;;;7.07;87.40;101742.88;4973700;28;20093;-64
2024/02/27 06:37:48;;;;;;;13.23;8.60;;;7.00;99.90;;;7.08;87.47;101749.94;4972883;28;20074;-64
2024/02/27 06:40:18;;;;;;;13.63;7.90;;;7.00;99.90;;;7.10;87.58;101770.13;4956563;28;20059;-64
2024/02/27 06:42:46;;;;;;;11.05;8.75;;;7.00;99.90;;;7.16;87.71;101772.03;4973524;28;20456;-64
2024/02/27 06:45:15;;;;;;;9.63;7.82;;;7.00;99.90;;;7.11;87.46;101776.28;4956384;28;20042;-64
2024/02/27 06:47:44;;;;;;;16.33;9.05;;;7.00;99.90;;;7.13;87.67;101785.09;4973498;28;20043;-64
2024/02/27 06:50:13;;;;;;;11.38;8.38;;;6.90;99.90;;;6.42;87.99;101661.53;4973852;28;20109;-64
2024/02/27 06:52:41;;;;;;;10.32;8.23;;;7.00;99.90;;;7.23;88.17;101782.75;4973402;28;20047;-64
2024/02/27 06:55:10;;;;;;;15.23;9.07;;;7.10;99.90;;;7.42;88.45;101788.41;4973182;28;20050;-64
2024/02/27 06:57:39;;;;;;;12.93;8.45;;;7.20;99.90;;;7.58;88.05;101811.63;4973636;28;20564;-64
2024/02/27 07:00:10;;;;;;;11.10;8.43;;;7.30;99.90;;;7.70;87.42;101788.19;4973250;28;20050;-64
2024/02/27 07:02:38;;;;;;;15.02;9.50;;;7.40;99.90;;;7.74;86.53;101788.28;4973368;28;20051;-64
2024/02/27 07:05:08;;;;;;;13.05;8.40;;;7.60;99.90;;;7.82;86.08;101797.22;4973162;28;20104;-64
2024/02/27 07:07:36;;;;;;;11.93;9.13;;;7.60;99.90;;;7.87;86.03;101790.34;4973249;28;20047;-64
2024/02/27 07:10:06;;;;;;;14.93;8.98;;;7.70;99.90;;;8.05;85.78;101795.97;4973309;28;20046;-64
2024/02/27 07:12:35;;;;;;;11.23;9.05;;;7.80;99.90;;;8.19;85.16;101805.06;4973237;28;20492;-64
2024/02/27 07:15:05;;;;;;;13.77;8.57;;;8.00;99.90;;;8.25;85.29;101777.06;4955757;28;20051;-65
2024/02/27 07:17:34;;;;;;;17.65;9.07;;;8.20;99.90;;;8.47;84.10;101810.91;4972887;28;20405;-64
2024/02/27 07:20:03;;;;;;;13.70;9.10;;;8.30;99.90;;;8.67;83.31;101810.41;4973040;28;20050;-65
2024/02/27 07:22:32;;;;;;;14.27;9.10;;;8.50;99.90;;;8.79;82.61;101805.34;4974893;28;20063;-65
2024/02/27 07:25:01;;;;;;;11.18;8.15;;;8.70;99.90;;;9.07;82.07;101815.53;4974509;28;20139;-65
2024/02/27 07:27:29;;;;;;;12.52;8.43;;;9.00;99.90;;;9.42;81.04;101829.31;4974294;28;20051;-65
2024/02/27 07:29:58;;;;;;;11.27;7.93;;;9.30;99.90;;;9.76;80.06;101839.50;4972732;28;20688;-65
2024/02/27 07:32:28;;;;;;;12.18;8.25;;;9.60;99.90;;;10.08;78.99;101845.25;4955432;28;20050;-65
2024/02/27 07:34:56;;;;;;;11.00;7.45;;;9.90;99.90;;;10.33;77.39;101850.00;4972609;28;20043;-65
2024/02/27 07:37:24;;;;;;;11.35;7.45;;;10.20;99.90;;;10.53;76.11;101852.88;4972495;28;20070;-65
2024/02/27 07:39:53;;;;;;;11.23;8.27;;;10.40;99.90;;;10.72;74.43;101853.06;4972618;28;20054;-66
2024/02/27 07:42:21;;;;;;;11.88;7.95;;;10.50;99.90;;;10.46;73.74;101795.47;4972694;28;20046;-68
2024/02/27 07:44:51;;;;;;;13.20;8.13;;;10.70;99.90;;;11.08;72.30;101849.94;4972617;28;20047;-67
2024/02/27 07:47:20;;;;;;;;;;;10.90;99.90;;;11.28;71.88;101840.41;4973535;28;20051;-66
2024/02/27 07:49:52;;;;;;;12.45;7.30;;;11.20;99.90;;;11.40;70.60;101843.13;4955200;28;19953;-67
2024/02/27 07:52:23;;;;;;;11.52;8.73;;;11.30;99.90;;;11.70;70.26;101830.16;4972341;28;20102;-67
2024/02/27 07:54:51;;;;;;;11.55;8.13;;;11.70;99.90;;;11.98;70.12;101833.81;4972220;28;20054;-67
2024/02/27 07:57:21;;;;;;;11.30;7.78;;;11.80;99.90;;;12.18;68.92;101833.94;4973832;28;20457;-67
2024/02/27 07:59:50;;;;;;;14.10;8.18;;;12.10;99.90;;;12.45;68.34;101844.66;4974174;28;20046;-68
2024/02/27 08:02:18;;;;;;;13.45;8.13;;;12.30;99.90;;;12.58;67.28;101835.88;4974133;28;20493;-68
2024/02/27 08:04:47;;;;;;;12.07;8.43;;;12.40;99.90;;;12.85;66.75;101832.38;4974070;28;20133;-68
2024/02/27 08:07:16;;;;;;;11.85;8.48;;;12.70;99.90;;;12.83;65.83;101829.75;4974016;28;20098;-68
2024/02/27 08:09:45;;;;;;;13.07;8.38;;;12.70;99.90;;;12.82;65.18;101824.41;4974616;28;20047;-69
2024/02/27 08:12:14;;;;;;;15.57;9.48;;;12.80;99.90;;;13.05;65.31;101825.34;4974003;28;20042;-67
2024/02/27 08:14:43;;;;;;;13.07;9.07;;;12.90;99.90;;;13.22;64.91;101829.78;4973912;28;20106;-67
2024/02/27 08:17:12;;;;;;;13.60;8.98;;;13.10;99.90;;;13.23;64.32;101852.81;4973673;28;20121;-65
2024/02/27 08:19:41;;;;;;;10.82;8.35;;;13.10;99.90;;;13.34;63.53;101835.09;4974110;28;20074;-67
2024/02/27 08:22:09;;;;;;;12.93;8.88;;;13.20;99.90;;;13.35;63.63;101839.56;4973700;28;20047;-67
2024/02/27 08:24:40;;;;;;;11.05;8.95;;;13.20;99.90;;;13.51;63.98;101851.06;4973593;28;20519;-68
2024/02/27 08:27:10;;;;;;;11.95;7.97;;;13.40;99.90;;;13.57;63.72;101843.94;4973931;28;20047;-68
2024/02/27 08:29:38;;;;;;;9.52;8.18;;;13.40;99.90;;;13.82;62.42;101852.75;4973909;28;20069;-65
2024/02/27 08:32:07;;;;;;;11.35;8.60;;;13.60;99.90;;;13.93;61.86;101863.41;4973731;28;20043;-67
2024/02/27 08:34:35;;;;;;;11.88;8.15;;;13.70;99.90;;;14.16;62.06;101865.13;4973625;28;20038;-67
2024/02/27 08:37:05;;;;;;;11.85;8.27;;;14.00;99.90;;;14.23;61.34;101857.97;4956457;28;20142;-68
2024/02/27 08:39:33;;;;;;;11.65;8.80;;;14.00;99.90;;;14.36;61.18;101855.28;4973893;28;20101;-67
2024/02/27 08:42:03;;;;;;;11.40;7.97;;;14.20;99.90;;;14.33;60.61;101860.66;4973833;28;20038;-68
2024/02/27 08:44:32;;;;;;;11.45;8.43;;;14.20;99.90;;;14.29;60.41;101850.91;4973869;28;20057;-62
2024/02/27 08:47:02;;;;;;;14.38;8.63;;;14.20;99.90;;;14.25;60.43;101857.09;4974182;28;20051;-62
2024/02/27 08:49:31;;;;;;;13.15;7.90;;;14.10;99.90;;;14.35;60.38;101857.97;4956819;28;20082;-62
2024/02/27 08:51:59;;;;;;;10.10;8.52;;;14.20;99.90;;;14.40;60.82;101864.19;4956482;28;20051;-62
2024/02/27 08:54:29;;;;;;;13.13;8.82;;;14.20;99.90;;;14.59;60.16;101856.97;4956254;28;20054;-63
2024/02/27 08:56:57;;;;;;;11.30;8.30;;;14.40;99.90;;;14.73;59.18;101861.34;4973499;28;20047;-62
2024/02/27 08:59:27;;;;;;;11.45;8.90;;;14.60;99.90;;;14.93;58.55;101862.09;4974086;28;20054;-63
2024/02/27 09:01:56;;;;;;;11.82;8.35;;;14.80;99.90;;;14.89;57.77;101854.13;4975985;28;20192;-63
2024/02/27 09:04:24;;;;;;;10.43;8.50;;;14.80;99.90;;;14.91;57.23;101863.91;4977652;28;20113;-62
2024/02/27 09:06:53;;;;;;;10.23;8.60;;;14.80;99.90;;;14.99;57.65;101862.06;4977625;28;20134;-63
2024/02/27 09:09:22;;;;;;;10.65;8.70;;;14.80;99.90;;;15.19;56.87;101870.78;4977518;28;20158;-62
2024/02/27 09:11:51;;;;;;;10.60;8.60;;;15.00;99.90;;;15.28;56.49;101876.09;4959798;28;20062;-63
2024/02/27 09:14:22;;;;;;;11.07;8.68;;;15.10;99.90;;;15.33;55.30;101878.69;4976950;28;20047;-63
2024/02/27 09:16:52;;;;;;;12.23;9.38;;;15.20;99.90;;;15.43;55.51;101879.56;4977286;28;20051;-62
2024/02/27 09:19:21;;;;;;;10.05;7.80;;;15.20;99.90;;;15.36;54.16;101873.34;4976874;28;20055;-63
2024/02/27 09:21:49;;;;;;;10.63;8.55;;;15.20;99.90;;;15.27;54.51;101884.97;4976885;28;20050;-62
2024/02/27 09:24:18;;;;;;;9.98;8.85;;;15.20;99.90;;;15.32;54.64;101888.50;4959816;28;20072;-63
2024/02/27 09:26:46;;;;;;;9.30;8.35;;;15.20;99.90;;;15.32;54.42;101891.16;4959648;28;20047;-68
2024/02/27 09:29:15;;;;;;;9.95;8.55;;;15.10;99.90;;;15.38;53.59;101875.13;4976917;28;20067;-63
2024/02/27 09:31:46;;;;;;;11.32;8.43;;;15.20;99.90;;;15.53;53.52;101886.56;4976716;28;20110;-63
2024/02/27 09:34:16;;;;;;;10.27;8.55;;;15.30;99.90;;;15.30;54.10;101889.41;4977094;28;20495;-66
2024/02/27 09:36:45;;;;;;;9.88;8.88;;;15.20;99.90;;;15.18;53.10;101881.47;4976914;28;20050;-64
2024/02/27 09:39:13;;;;;;;9.90;8.90;;;15.00;99.90;;;15.34;54.07;101859.16;4977076;28;20097;-66
2024/02/27 09:41:53;;;;;;;8.95;8.05;;;15.20;99.90;;;15.07;51.64;101857.59;4976625;28;20039;-67
2024/02/27 09:44:22;;;;;;;9.18;8.23;;;15.20;99.90;;;15.45;53.10;101870.63;4976918;28;20051;-61
2024/02/27 09:46:53;;;;;;;8.82;7.93;;;15.30;99.90;;;15.41;52.16;101868.00;4976400;28;20066;-61
2024/02/27 09:49:23;;;;;;;8.80;7.35;;;15.30;99.90;;;15.37;52.14;101868.00;4976728;28;20070;-62
2024/02/27 09:52:11;;;;;;;9.18;8.20;;;15.30;99.90;;;15.55;52.07;101869.66;4976700;28;20051;-65
2024/02/27 09:54:39;;;;;;;8.85;8.05;;;15.40;99.90;;;15.34;50.98;101861.81;4976485;28;20419;-61
2024/02/27 09:57:10;;;;;;;11.32;9.10;;;15.30;99.90;;;15.71;52.85;101865.09;4959306;28;20466;-63
2024/02/27 09:59:40;;;;;;;8.40;7.60;;;15.50;99.90;;;15.81;50.74;101865.00;4976150;28;20039;-61
2024/02/27 10:02:13;;;;;;;9.10;8.18;;;15.70;99.90;;;16.00;51.79;101868.34;4976665;28;20043;-61
2024/02/27 10:04:43;;;;;;;10.48;7.88;;;15.80;99.90;;;16.00;50.03;101858.56;4976436;28;20520;-62
2024/02/27 10:07:13;;;;;;;9.25;8.25;;;15.90;99.90;;;15.98;50.71;101867.47;4976047;28;20046;-63
2024/02/27 10:09:46;;;;;;;8.48;7.68;;;15.80;99.90;;;16.13;50.31;101864.63;4976044;28;20129;-62
2024/02/27 10:12:16;;;;;;;8.95;8.07;;;16.00;99.90;;;15.92;50.70;101860.41;4976073;28;20146;-61
2024/02/27 10:14:45;;;;;;;8.25;7.45;;;15.80;99.90;;;15.99;51.89;101859.44;4976097;28;20385;-61
2024/02/27 10:17:14;;;;;;;8.98;8.07;;;15.80;99.90;;;16.10;51.71;101854.00;4975640;28;20039;-61
2024/02/27 10:19:43;;;;;;;10.05;9.05;;;15.90;99.90;;;16.07;50.92;101848.69;4973553;28;20051;-63
2024/02/27 10:22:13;;;;;;;13.20;8.80;;;15.90;99.90;;;14.79;51.90;101844.47;4972963;28;20156;-62
2024/02/27 10:24:45;;;;;;;11.82;9.40;;;15.00;99.90;;;13.31;54.95;101840.44;4955416;28;20055;-63
2024/02/27 10:27:16;;;;;;;11.45;9.25;;;13.60;99.90;;;14.06;57.02;101844.75;4955497;28;20057;-61